Time;durP1;ratioP1;P1;durP2;ratioP2;P2;SDS_P1;SDS_P2;PMS_P1;PMS_P2;Temp;Humidity;BMP_temperature;BMP_pressure;BME280_temperature;BME280_humidity;BME280_pressure;Samples;Min_cycle;Max_cycle;Signal;HPM_P1;HPM_P2
2024/03/16 00:01:36;;;;;;;7.15;3.95;;;13.50;82.60;;;;;;5075060;28;20057;-79
2024/03/16 00:04:03;;;;;;;7.90;3.45;;;13.40;84.60;;;;;;5071717;28;20128;-79
2024/03/16 00:06:33;;;;;;;11.85;3.95;;;13.20;87.20;;;;;;5082665;28;20047;-79
2024/03/16 00:09:00;;;;;;;6.80;3.35;;;13.10;88.60;;;;;;5073552;28;20128;-79
2024/03/16 00:11:31;;;;;;;6.82;3.58;;;13.00;89.80;;;;;;5085318;28;20494;-79
2024/03/16 00:14:03;;;;;;;5.68;3.60;;;12.90;90.10;;;;;;5071301;28;20495;-79
2024/03/16 00:16:31;;;;;;;9.07;3.63;;;12.80;90.70;;;;;;5085358;28;20048;-79
2024/03/16 00:18:58;;;;;;;6.65;3.17;;;12.70;91.20;;;;;;5077368;28;20063;-78
2024/03/16 00:21:25;;;;;;;5.97;3.35;;;12.70;91.20;;;;;;5086037;28;20049;-79
2024/03/16 00:23:53;;;;;;;5.30;3.20;;;12.70;92.00;;;;;;5076312;28;20483;-79
2024/03/16 00:26:23;;;;;;;7.85;3.20;;;12.70;92.10;;;;;;5079903;28;20517;-79
2024/03/16 00:28:50;;;;;;;7.88;3.00;;;12.60;92.50;;;;;;5076969;28;20053;-79
2024/03/16 00:31:18;;;;;;;6.78;3.28;;;12.50;92.80;;;;;;5085512;28;20080;-79
2024/03/16 00:33:47;;;;;;;5.80;3.08;;;12.50;93.30;;;;;;5074050;28;20076;-79
2024/03/16 00:36:16;;;;;;;6.13;2.83;;;12.40;93.40;;;;;;5077774;28;20538;-79
2024/03/16 00:38:49;;;;;;;4.85;2.75;;;12.30;93.70;;;;;;5062210;28;20095;-79
2024/03/16 00:41:17;;;;;;;6.97;3.40;;;12.30;93.70;;;;;;5061471;28;20505;-79
2024/03/16 00:43:46;;;;;;;6.22;2.63;;;12.30;94.00;;;;;;5072142;28;20077;-79
2024/03/16 00:46:15;;;;;;;5.65;2.85;;;12.20;94.00;;;;;;5060486;28;20461;-79
2024/03/16 00:48:42;;;;;;;4.25;3.13;;;12.10;94.90;;;;;;5073326;28;20091;-79
2024/03/16 00:51:10;;;;;;;7.45;3.00;;;12.10;95.10;;;;;;5070906;28;20525;-79
2024/03/16 00:53:41;;;;;;;5.18;2.80;;;12.10;95.30;;;;;;5072056;28;20101;-79
2024/03/16 00:56:10;;;;;;;9.27;2.90;;;12.10;95.70;;;;;;5077100;28;20110;-80
2024/03/16 00:58:37;;;;;;;5.80;3.53;;;12.00;95.90;;;;;;5065365;28;20182;-79
2024/03/16 01:01:04;;;;;;;7.07;2.83;;;12.00;96.00;;;;;;5054028;28;20132;-79
2024/03/16 01:03:31;;;;;;;4.55;2.80;;;12.00;96.30;;;;;;5081459;28;20511;-79
2024/03/16 01:05:58;;;;;;;5.82;2.90;;;12.00;96.90;;;;;;5072103;28;20056;-78
2024/03/16 01:08:24;;;;;;;3.13;2.50;;;12.00;97.00;;;;;;5079132;28;20063;-79
2024/03/16 01:10:55;;;;;;;6.80;3.38;;;12.00;97.10;;;;;;5063601;28;20049;-79
2024/03/16 01:13:28;;;;;;;4.55;3.10;;;12.00;97.20;;;;;;5072214;28;20052;-80
2024/03/16 01:15:55;;;;;;;5.25;3.70;;;12.00;97.40;;;;;;5068740;28;20056;-79
2024/03/16 01:18:22;;;;;;;5.78;3.67;;;12.00;97.20;;;;;;5058001;28;20041;-79
2024/03/16 01:20:52;;;;;;;8.20;3.97;;;12.00;97.70;;;;;;5075180;28;20544;-76
2024/03/16 01:23:19;;;;;;;5.90;3.78;;;12.00;98.00;;;;;;5057600;28;20160;-76
2024/03/16 01:25:46;;;;;;;6.32;3.78;;;12.00;98.40;;;;;;5069339;28;20045;-76
2024/03/16 01:28:14;;;;;;;8.32;3.58;;;11.90;98.50;;;;;;5068660;28;20049;-76
2024/03/16 01:30:41;;;;;;;5.22;3.08;;;12.00;98.80;;;;;;5073807;28;20053;-76
2024/03/16 01:33:11;;;;;;;4.85;2.92;;;12.00;99.10;;;;;;5064793;28;20083;-76
2024/03/16 01:35:38;;;;;;;5.03;2.53;;;12.00;98.80;;;;;;5070137;28;20055;-76
2024/03/16 01:38:07;;;;;;;4.32;2.60;;;12.00;97.80;;;;;;5067901;28;20053;-76
2024/03/16 01:40:34;;;;;;;5.95;2.60;;;12.00;97.40;;;;;;5064614;28;20847;-76
2024/03/16 01:43:01;;;;;;;3.80;2.78;;;12.10;97.90;;;;;;5069280;28;20094;-76
2024/03/16 01:45:28;;;;;;;8.23;2.97;;;12.00;98.90;;;;;;5061449;28;20094;-76
2024/03/16 01:47:55;;;;;;;3.90;2.60;;;12.00;99.00;;;;;;5078625;28;20045;-76
2024/03/16 01:50:22;;;;;;;5.95;3.05;;;12.00;99.10;;;;;;5063089;28;20052;-76
2024/03/16 01:52:52;;;;;;;6.85;2.70;;;12.00;98.90;;;;;;5059067;28;20099;-76
2024/03/16 01:55:21;;;;;;;6.15;3.03;;;12.00;99.20;;;;;;5057880;28;20943;-76
2024/03/16 01:57:50;;;;;;;7.10;3.08;;;12.00;99.30;;;;;;5052754;28;20041;-76
2024/03/16 02:00:19;;;;;;;4.53;3.15;;;11.90;99.10;;;;;;5072681;28;20127;-76
2024/03/16 02:02:46;;;;;;;5.60;3.25;;;11.80;99.40;;;;;;5054391;28;20049;-76
2024/03/16 02:05:14;;;;;;;8.05;3.00;;;11.80;99.50;;;;;;5069922;28;20464;-76
2024/03/16 02:07:44;;;;;;;8.23;3.45;;;11.80;99.70;;;;;;5071775;28;20053;-77
2024/03/16 02:10:14;;;;;;;5.72;2.90;;;11.80;99.90;;;;;;5069718;28;20121;-76
2024/03/16 02:12:43;;;;;;;6.50;3.22;;;11.70;99.90;;;;;;5084102;28;20127;-76
2024/03/16 02:15:11;;;;;;;5.18;3.42;;;11.70;99.90;;;;;;5069823;28;20051;-76
2024/03/16 02:17:37;;;;;;;4.85;3.15;;;11.70;99.90;;;;;;5053586;28;20048;-76
2024/03/16 02:20:09;;;;;;;5.53;3.15;;;11.70;99.90;;;;;;5079803;28;20457;-76
2024/03/16 02:22:36;;;;;;;8.57;3.22;;;11.70;99.90;;;;;;5070227;28;20083;-76
2024/03/16 02:25:03;;;;;;;6.93;2.90;;;11.70;99.90;;;;;;5077458;28;20052;-77
2024/03/16 02:27:30;;;;;;;6.18;3.42;;;11.70;99.90;;;;;;5076735;28;20072;-76
2024/03/16 02:29:57;;;;;;;6.55;3.20;;;11.70;99.90;;;;;;5072403;28;20119;-76
2024/03/16 02:32:24;;;;;;;7.65;3.15;;;11.70;99.90;;;;;;5053615;28;20457;-76
2024/03/16 02:34:51;;;;;;;7.20;2.92;;;11.70;99.90;;;;;;5059500;28;20049;-76
2024/03/16 02:37:19;;;;;;;5.80;2.80;;;11.70;99.90;;;;;;5069160;28;20055;-76
2024/03/16 02:39:46;;;;;;;4.70;3.08;;;11.80;99.90;;;;;;5068794;28;20052;-76
2024/03/16 02:42:13;;;;;;;4.82;2.83;;;11.80;99.90;;;;;;5054502;28;20132;-76
2024/03/16 02:44:40;;;;;;;8.77;3.10;;;11.80;99.90;;;;;;5067096;28;20044;-76
2024/03/16 02:47:10;;;;;;;6.07;2.95;;;11.80;99.90;;;;;;5070852;28;20048;-76
2024/03/16 02:49:37;;;;;;;5.50;2.85;;;11.80;99.90;;;;;;5069273;28;20071;-76
2024/03/16 02:52:04;;;;;;;3.67;2.60;;;11.80;99.90;;;;;;5067349;28;20498;-76
2024/03/16 02:54:31;;;;;;;4.05;2.70;;;11.80;99.90;;;;;;5064612;28;20490;-76
2024/03/16 02:56:58;;;;;;;8.20;3.47;;;11.80;99.90;;;;;;5079938;28;20123;-76
2024/03/16 02:59:29;;;;;;;6.97;3.28;;;11.80;99.90;;;;;;5062690;28;20067;-76
2024/03/16 03:01:57;;;;;;;3.20;2.47;;;11.70;99.90;;;;;;5068346;28;20045;-76
2024/03/16 03:04:29;;;;;;;4.78;2.88;;;11.70;99.90;;;;;;5065883;28;20052;-76
2024/03/16 03:06:56;;;;;;;6.22;2.50;;;11.70;99.90;;;;;;5069101;28;20487;-76
2024/03/16 03:09:22;;;;;;;8.07;2.90;;;11.80;99.90;;;;;;5056174;28;20055;-76
2024/03/16 03:11:49;;;;;;;5.05;3.10;;;11.80;99.90;;;;;;5070877;28;20387;-76
2024/03/16 03:14:18;;;;;;;5.35;2.90;;;11.80;99.90;;;;;;5054585;28;20052;-76
2024/03/16 03:16:45;;;;;;;5.82;3.17;;;11.90;99.90;;;;;;5055695;28;20095;-76
2024/03/16 03:19:12;;;;;;;6.57;2.42;;;11.90;99.90;;;;;;5062551;28;20089;-76
2024/03/16 03:21:39;;;;;;;5.00;2.92;;;11.90;99.90;;;;;;5070875;28;20059;-76
2024/03/16 03:24:11;;;;;;;5.18;2.78;;;11.90;99.90;;;;;;5069399;28;20083;-76
2024/03/16 03:26:38;;;;;;;3.13;2.83;;;11.90;99.90;;;;;;5064722;28;20154;-76
2024/03/16 03:29:07;;;;;;;4.22;3.03;;;11.90;99.90;;;;;;5059010;28;20041;-76
2024/03/16 03:31:34;;;;;;;4.22;2.55;;;11.90;99.90;;;;;;5059805;28;20442;-76
2024/03/16 03:34:03;;;;;;;4.28;2.70;;;11.90;99.90;;;;;;5069425;28;20049;-76
2024/03/16 03:36:33;;;;;;;4.82;2.80;;;11.90;99.90;;;;;;5078517;28;20414;-77
2024/03/16 03:39:03;;;;;;;3.45;2.78;;;11.90;99.90;;;;;;5064161;28;20467;-76
2024/03/16 03:41:29;;;;;;;6.63;2.70;;;11.90;99.90;;;;;;5064913;28;20065;-76
2024/03/16 03:43:59;;;;;;;5.55;3.10;;;11.90;99.80;;;;;;5065759;28;20399;-76
2024/03/16 03:46:39;;;;;;;4.35;2.50;;;11.80;99.90;;;;;;5066492;28;20384;-76
2024/03/16 03:49:25;;;;;;;4.20;3.00;;;11.80;99.90;;;;;;5066961;28;20128;-77
2024/03/16 03:51:53;;;;;;;3.30;2.80;;;11.80;99.90;;;;;;5066963;28;20044;-76
2024/03/16 03:54:21;;;;;;;5.07;3.22;;;11.80;99.90;;;;;;5073038;28;20053;-76
2024/03/16 03:56:48;;;;;;;5.32;3.05;;;11.80;99.90;;;;;;5061231;28;20049;-76
2024/03/16 03:59:15;;;;;;;6.43;3.22;;;11.80;99.90;;;;;;5069573;28;20407;-76
2024/03/16 04:01:42;;;;;;;5.50;2.80;;;11.80;99.90;;;;;;5055485;28;20053;-76
2024/03/16 04:04:09;;;;;;;7.93;3.33;;;11.70;99.90;;;;;;5072178;28;20049;-76
2024/03/16 04:06:44;;;;;;;4.25;3.20;;;11.70;99.90;;;;;;5059432;28;20044;-76
2024/03/16 04:09:12;;;;;;;5.00;3.10;;;11.60;99.90;;;;;;5060177;28;20052;-76
2024/03/16 04:11:41;;;;;;;4.80;3.53;;;11.60;99.90;;;;;;5068000;28;20448;-76
2024/03/16 04:14:08;;;;;;;6.38;3.05;;;11.60;99.90;;;;;;5068499;28;20119;-76
2024/03/16 04:16:38;;;;;;;4.50;3.03;;;11.60;99.90;;;;;;5067006;28;20444;-76
2024/03/16 04:19:05;;;;;;;3.72;2.92;;;11.60;99.90;;;;;;5068138;28;20049;-77
2024/03/16 04:21:32;;;;;;;6.90;3.67;;;11.60;99.90;;;;;;5068630;28;20491;-76
2024/03/16 04:23:59;;;;;;;5.38;3.40;;;11.60;99.90;;;;;;5069837;28;20056;-76
2024/03/16 04:26:25;;;;;;;4.13;3.10;;;11.70;99.90;;;;;;5069659;28;20066;-82
2024/03/16 04:28:52;;;;;;;4.47;2.67;;;11.70;99.90;;;;;;5064495;28;20101;-81
2024/03/16 04:31:19;;;;;;;5.05;3.00;;;11.70;99.90;;;;;;5067053;28;20102;-81
2024/03/16 04:33:46;;;;;;;7.15;3.13;;;11.70;99.90;;;;;;5055376;28;20048;-81
2024/03/16 04:36:13;;;;;;;6.63;3.38;;;11.70;99.90;;;;;;5057725;28;20044;-82
2024/03/16 04:38:41;;;;;;;6.32;3.03;;;11.60;99.90;;;;;;5068486;28;20135;-82
2024/03/16 04:41:10;;;;;;;5.68;3.25;;;11.50;99.90;;;;;;5064760;28;20053;-82
2024/03/16 04:43:37;;;;;;;3.30;2.85;;;11.60;99.90;;;;;;5064432;28;20406;-81
2024/03/16 04:46:04;;;;;;;5.10;3.17;;;11.60;99.90;;;;;;5068299;28;20071;-81
2024/03/16 04:48:31;;;;;;;3.20;2.63;;;11.60;99.90;;;;;;5063389;28;20780;-82
2024/03/16 04:50:58;;;;;;;9.65;3.63;;;11.50;99.90;;;;;;5066765;28;20036;-81
2024/03/16 04:53:25;;;;;;;4.80;2.67;;;11.50;99.90;;;;;;5073853;28;20046;-82
2024/03/16 04:55:55;;;;;;;4.97;2.63;;;11.50;99.90;;;;;;5065657;28;20076;-81
2024/03/16 04:58:22;;;;;;;4.22;2.50;;;11.50;99.90;;;;;;5060348;28;20045;-81
2024/03/16 05:00:49;;;;;;;3.40;2.00;;;11.50;99.20;;;;;;5082033;28;20479;-81
2024/03/16 05:03:18;;;;;;;5.43;1.90;;;11.50;96.20;;;;;;5066018;28;20048;-82
2024/03/16 05:05:48;;;;;;;3.50;1.95;;;11.60;96.00;;;;;;5058365;28;20053;-82
2024/03/16 05:08:15;;;;;;;5.75;1.48;;;11.70;94.70;;;;;;5070756;28;20049;-81
2024/03/16 05:10:48;;;;;;;2.60;1.60;;;11.70;93.30;;;;;;5077421;28;20154;-82
2024/03/16 05:13:19;;;;;;;3.45;1.90;;;11.80;93.10;;;;;;5081082;28;20055;-82
2024/03/16 05:15:47;;;;;;;2.70;1.52;;;11.90;92.00;;;;;;5061612;28;20438;-82
2024/03/16 05:18:14;;;;;;;2.75;1.50;;;12.00;91.60;;;;;;5060957;28;20465;-82
2024/03/16 05:20:46;;;;;;;3.20;1.30;;;12.00;91.00;;;;;;5072807;28;20394;-82
2024/03/16 05:23:14;;;;;;;1.80;1.40;;;12.10;90.80;;;;;;5067638;28;20502;-82
2024/03/16 05:25:46;;;;;;;2.75;1.20;;;12.10;90.80;;;;;;5069916;28;20052;-82
2024/03/16 05:28:13;;;;;;;2.58;1.10;;;12.20;90.40;;;;;;5054919;28;20041;-81
2024/03/16 05:30:40;;;;;;;2.20;1.00;;;12.30;90.50;;;;;;5069662;28;20045;-82
2024/03/16 05:33:07;;;;;;;1.75;1.10;;;12.30;89.30;;;;;;5065458;28;20077;-82
2024/03/16 05:35:40;;;;;;;2.25;0.95;;;12.30;88.80;;;;;;5065953;28;20044;-82
2024/03/16 05:38:07;;;;;;;2.15;0.90;;;12.40;89.40;;;;;;5067386;28;20048;-81
2024/03/16 05:40:35;;;;;;;1.60;0.90;;;12.40;88.50;;;;;;5066493;28;20499;-82
2024/03/16 05:43:02;;;;;;;1.48;0.88;;;12.40;87.80;;;;;;5080349;28;20064;-81
2024/03/16 05:45:29;;;;;;;1.25;0.90;;;12.50;86.90;;;;;;5057918;28;20049;-82
2024/03/16 05:47:56;;;;;;;1.85;1.10;;;12.50;86.10;;;;;;5067316;28;20053;-82
2024/03/16 05:50:23;;;;;;;1.23;0.90;;;12.50;86.40;;;;;;5061103;28;20487;-82
2024/03/16 05:52:51;;;;;;;2.10;0.80;;;12.50;86.70;;;;;;5059663;28;20146;-76
2024/03/16 05:55:21;;;;;;;1.25;0.80;;;12.50;87.10;;;;;;5064805;28;20064;-76
2024/03/16 05:57:48;;;;;;;2.17;0.98;;;12.50;87.50;;;;;;5058269;28;20055;-76
2024/03/16 06:00:16;;;;;;;1.40;0.80;;;12.50;88.70;;;;;;5059139;28;20053;-76
2024/03/16 06:02:43;;;;;;;1.13;0.70;;;12.50;89.70;;;;;;5060999;28;20045;-80
2024/03/16 06:05:10;;;;;;;2.90;0.80;;;12.60;89.70;;;;;;5061801;28;20048;-79
2024/03/16 06:07:37;;;;;;;1.60;0.80;;;12.60;90.90;;;;;;5066707;28;20052;-79
2024/03/16 06:10:09;;;;;;;1.83;1.05;;;12.60;90.50;;;;;;5065035;28;20113;-79
2024/03/16 06:12:37;;;;;;;2.03;1.30;;;12.60;90.50;;;;;;5069546;28;20045;-80
2024/03/16 06:15:05;;;;;;;1.70;1.00;;;12.60;90.40;;;;;;5057839;28;20051;-79
2024/03/16 06:17:36;;;;;;;1.13;1.00;;;12.60;90.80;;;;;;5065504;28;20053;-80
2024/03/16 06:20:05;;;;;;;1.15;0.88;;;12.60;90.60;;;;;;5068112;28;20498;-79
2024/03/16 06:22:31;;;;;;;1.02;0.95;;;12.60;90.50;;;;;;5057150;28;20056;-79
2024/03/16 06:24:58;;;;;;;2.33;1.20;;;12.60;90.80;;;;;;5058849;28;20106;-76
2024/03/16 06:27:25;;;;;;;2.72;1.00;;;12.70;90.80;;;;;;5053590;28;20057;-77
2024/03/16 06:29:52;;;;;;;2.65;0.90;;;12.70;89.70;;;;;;5070543;28;20055;-76
2024/03/16 06:32:20;;;;;;;1.17;0.73;;;12.80;90.10;;;;;;5069229;28;20126;-76
2024/03/16 06:34:51;;;;;;;1.23;0.73;;;12.80;89.30;;;;;;5055875;28;20080;-76
2024/03/16 06:37:18;;;;;;;1.23;0.70;;;12.80;88.60;;;;;;5075627;28;20041;-76
2024/03/16 06:39:48;;;;;;;3.05;1.00;;;12.90;87.70;;;;;;5059894;28;20045;-76
2024/03/16 06:42:15;;;;;;;1.13;0.90;;;12.90;87.20;;;;;;5060537;28;20106;-76
2024/03/16 06:44:43;;;;;;;2.80;0.98;;;12.80;88.40;;;;;;5068805;28;20059;-76
2024/03/16 06:47:11;;;;;;;2.03;0.80;;;12.90;89.60;;;;;;5061424;28;20903;-76
2024/03/16 06:49:42;;;;;;;1.10;0.85;;;12.90;90.40;;;;;;5060976;28;20487;-76
2024/03/16 06:52:09;;;;;;;2.30;0.90;;;12.90;91.00;;;;;;5064530;28;20049;-76
2024/03/16 06:54:36;;;;;;;2.08;0.80;;;12.80;92.60;;;;;;5054603;28;20482;-76
2024/03/16 06:57:06;;;;;;;1.73;0.80;;;12.80;93.50;;;;;;5057190;28;20495;-76
2024/03/16 06:59:37;;;;;;;3.67;1.00;;;12.80;94.30;;;;;;5073190;28;20055;-76
2024/03/16 07:02:07;;;;;;;4.72;1.35;;;12.90;96.00;;;;;;5054688;28;20525;-76
2024/03/16 07:04:35;;;;;;;4.72;1.10;;;12.80;96.10;;;;;;5058055;28;20077;-76
2024/03/16 07:07:02;;;;;;;2.80;0.85;;;12.80;96.20;;;;;;5068641;28;20129;-76
2024/03/16 07:09:29;;;;;;;1.67;1.05;;;12.90;96.50;;;;;;5066159;28;20049;-82
2024/03/16 07:11:56;;;;;;;2.60;1.25;;;12.90;97.70;;;;;;5078688;28;20045;-82
2024/03/16 07:14:23;;;;;;;1.50;0.90;;;12.90;98.80;;;;;;5058481;28;20383;-82
2024/03/16 07:16:50;;;;;;;1.05;0.90;;;12.90;97.50;;;;;;5060384;28;20044;-82
2024/03/16 07:19:18;;;;;;;1.42;1.00;;;12.90;96.90;;;;;;5069810;28;20901;-82
2024/03/16 07:21:45;;;;;;;2.22;1.40;;;12.90;97.40;;;;;;5066100;28;20051;-82
2024/03/16 07:24:12;;;;;;;3.65;1.48;;;12.90;97.20;;;;;;5063568;28;20065;-82
2024/03/16 07:26:40;;;;;;;7.50;2.88;;;12.90;96.80;;;;;;5064537;28;20737;-82
2024/03/16 07:29:08;;;;;;;5.32;2.42;;;12.90;97.00;;;;;;5062676;28;20056;-82
2024/03/16 07:31:35;;;;;;;6.68;3.92;;;12.90;96.60;;;;;;5060773;28;20076;-81
2024/03/16 07:34:05;;;;;;;6.40;3.40;;;12.90;96.30;;;;;;5058314;28;20045;-79
2024/03/16 07:36:33;;;;;;;7.15;3.50;;;13.00;96.10;;;;;;5057197;28;20136;-79
2024/03/16 07:39:08;;;;;;;4.68;2.92;;;13.00;94.70;;;;;;5059089;28;20135;-79
2024/03/16 07:41:35;;;;;;;2.90;2.33;;;13.00;95.80;;;;;;5060067;28;20053;-82
2024/03/16 07:44:05;;;;;;;4.97;2.15;;;13.10;94.80;;;;;;5064672;28;20053;-82
2024/03/16 07:46:32;;;;;;;4.35;2.08;;;13.10;96.90;;;;;;5059083;28;20052;-82
2024/03/16 07:49:03;;;;;;;2.60;2.15;;;13.20;96.70;;;;;;5069006;28;20045;-82
2024/03/16 07:51:35;;;;;;;5.57;2.15;;;13.20;94.70;;;;;;5069982;28;20051;-82
2024/03/16 07:54:03;;;;;;;2.65;1.98;;;13.30;95.10;;;;;;5068338;28;20040;-82
2024/03/16 07:56:32;;;;;;;3.67;2.03;;;13.30;95.70;;;;;;5067668;28;20064;-82
2024/03/16 07:58:59;;;;;;;4.70;2.05;;;13.40;94.50;;;;;;5072186;28;20129;-82
2024/03/16 08:01:29;;;;;;;5.53;1.58;;;13.50;94.20;;;;;;5072052;28;20053;-82
2024/03/16 08:03:56;;;;;;;2.17;1.17;;;13.60;93.00;;;;;;5076645;28;20128;-81
2024/03/16 08:06:23;;;;;;;2.55;1.40;;;13.70;90.80;;;;;;5062111;28;20479;-82
2024/03/16 08:08:50;;;;;;;2.90;1.55;;;13.90;90.70;;;;;;5064506;28;20048;-82
2024/03/16 08:11:17;;;;;;;1.75;1.20;;;14.00;85.90;;;;;;5071737;28;20044;-82
2024/03/16 08:13:45;;;;;;;1.98;1.30;;;14.20;89.20;;;;;;5066435;28;20041;-82
2024/03/16 08:16:12;;;;;;;3.67;1.20;;;14.20;83.50;;;;;;5074978;28;20055;-82
2024/03/16 08:18:41;;;;;;;3.80;1.02;;;14.20;85.60;;;;;;5065689;28;20472;-79
2024/03/16 08:21:08;;;;;;;1.00;0.88;;;14.30;84.60;;;;;;5065020;28;20048;-80
2024/03/16 08:23:35;;;;;;;2.55;1.05;;;14.40;83.20;;;;;;5073654;28;20054;-79
2024/03/16 08:26:05;;;;;;;2.42;1.05;;;14.50;83.10;;;;;;5063748;28;20376;-79
2024/03/16 08:28:32;;;;;;;1.40;0.80;;;14.50;82.20;;;;;;5070716;28;20057;-79
2024/03/16 08:31:04;;;;;;;1.27;0.85;;;14.60;78.90;;;;;;5069402;28;20080;-79
2024/03/16 08:33:32;;;;;;;2.40;0.80;;;14.60;80.60;;;;;;5061143;28;20398;-79
2024/03/16 08:35:59;;;;;;;1.65;0.60;;;14.70;76.10;;;;;;5064894;28;20045;-79
2024/03/16 08:38:26;;;;;;;1.15;0.80;;;14.80;75.70;;;;;;5067047;28;20048;-79
2024/03/16 08:40:54;;;;;;;1.02;0.70;;;14.90;79.30;;;;;;5065448;28;20122;-79
2024/03/16 08:43:22;;;;;;;4.13;0.90;;;15.10;80.90;;;;;;5064949;28;20742;-79
2024/03/16 08:45:49;;;;;;;1.13;0.70;;;15.20;75.40;;;;;;5061581;28;20040;-79
2024/03/16 08:48:16;;;;;;;1.42;0.82;;;15.30;74.10;;;;;;5071055;28;20041;-79
2024/03/16 08:50:43;;;;;;;2.72;1.20;;;15.20;74.90;;;;;;5079630;28;20041;-79
2024/03/16 08:53:10;;;;;;;4.10;1.40;;;15.20;73.90;;;;;;5062462;28;20098;-79
2024/03/16 08:55:37;;;;;;;2.83;0.90;;;15.20;72.60;;;;;;5062038;28;20063;-80
2024/03/16 08:58:04;;;;;;;3.30;0.80;;;15.20;72.80;;;;;;5071129;28;20090;-79
2024/03/16 09:00:31;;;;;;;1.00;0.73;;;15.20;70.60;;;;;;5071179;28;20055;-79
2024/03/16 09:03:00;;;;;;;0.75;0.70;;;15.20;70.30;;;;;;5056998;28;20045;-79
2024/03/16 09:05:27;;;;;;;2.33;0.70;;;15.20;72.90;;;;;;5058811;28;20095;-79
2024/03/16 09:07:54;;;;;;;1.58;0.60;;;15.20;69.20;;;;;;5071593;28;20076;-80
2024/03/16 09:10:21;;;;;;;1.45;0.73;;;15.20;69.10;;;;;;5055291;28;20056;-80
2024/03/16 09:12:49;;;;;;;1.80;0.60;;;15.20;68.40;;;;;;5060651;28;20129;-80
2024/03/16 09:15:16;;;;;;;3.35;0.77;;;15.40;68.10;;;;;;5065889;28;20526;-79
2024/03/16 09:17:43;;;;;;;0.95;0.60;;;15.50;69.30;;;;;;5079796;28;20053;-79
2024/03/16 09:20:10;;;;;;;2.80;0.80;;;15.60;68.80;;;;;;5055007;28;20478;-80
2024/03/16 09:22:38;;;;;;;1.23;0.70;;;15.70;67.90;;;;;;5073739;28;20129;-80
2024/03/16 09:25:05;;;;;;;2.38;0.77;;;15.80;66.40;;;;;;5070773;28;20045;-79
2024/03/16 09:27:34;;;;;;;0.90;0.60;;;15.90;66.00;;;;;;5060709;28;20544;-80
2024/03/16 09:30:05;;;;;;;1.08;0.60;;;16.00;65.20;;;;;;5061439;28;20051;-78
2024/03/16 09:32:33;;;;;;;2.22;0.45;;;15.90;66.50;;;;;;5056515;28;20067;-80
2024/03/16 09:35:00;;;;;;;1.30;0.70;;;15.80;68.50;;;;;;5070167;28;20084;-80
2024/03/16 09:37:27;;;;;;;1.30;0.60;;;15.60;67.60;;;;;;5070561;28;20107;-79
2024/03/16 09:39:55;;;;;;;0.80;0.80;;;15.40;67.20;;;;;;5056856;28;20062;-79
2024/03/16 09:42:24;;;;;;;1.88;0.68;;;15.20;68.90;;;;;;5057493;28;20170;-79
2024/03/16 09:44:52;;;;;;;1.40;0.70;;;15.10;68.40;;;;;;5066283;28;20061;-79
2024/03/16 09:47:23;;;;;;;2.35;0.70;;;14.90;69.20;;;;;;5070220;28;20044;-79
2024/03/16 09:49:50;;;;;;;2.70;0.70;;;14.80;71.10;;;;;;5065930;28;20100;-79
2024/03/16 09:52:18;;;;;;;1.08;0.50;;;14.70;74.10;;;;;;5062888;28;20094;-79
2024/03/16 09:54:45;;;;;;;1.45;0.65;;;14.50;74.90;;;;;;5069371;28;20632;-79
2024/03/16 09:57:14;;;;;;;0.73;0.40;;;14.30;76.00;;;;;;5044924;28;20053;-79
2024/03/16 09:59:48;;;;;;;1.63;0.60;;;14.20;79.40;;;;;;5053970;28;20055;-79
2024/03/16 10:02:23;;;;;;;1.50;0.80;;;14.20;80.20;;;;;;5053856;28;20049;-79
2024/03/16 10:04:49;;;;;;;1.77;0.70;;;14.10;80.70;;;;;;5058029;28;20067;-79
2024/03/16 10:07:18;;;;;;;1.48;0.70;;;14.10;82.30;;;;;;5055190;28;20057;-79
2024/03/16 10:09:52;;;;;;;2.83;0.88;;;14.30;83.10;;;;;;5052989;28;20048;-79
2024/03/16 10:12:23;;;;;;;1.58;0.77;;;14.80;83.40;;;;;;5042146;28;20056;-79
2024/03/16 10:15:20;;;;;;;3.03;0.57;;;15.80;80.20;;;;;;5060337;28;20070;-80
2024/03/16 10:17:49;;;;;;;1.98;1.20;;;17.10;71.40;;;;;;5070056;28;20052;-80
2024/03/16 10:20:18;;;;;;;2.65;1.17;;;18.50;66.00;;;;;;5069282;28;20487;-80
2024/03/16 10:22:49;;;;;;;1.60;0.80;;;19.70;61.60;;;;;;5066547;28;20060;-80
2024/03/16 10:25:17;;;;;;;5.80;1.38;;;21.00;57.70;;;;;;5052103;28;20056;-80
2024/03/16 10:27:44;;;;;;;3.03;1.00;;;22.10;55.40;;;;;;5065045;28;20056;-80
2024/03/16 10:30:13;;;;;;;2.83;1.10;;;23.00;53.40;;;;;;5081937;28;20036;-77
2024/03/16 10:32:49;;;;;;;1.45;0.60;;;23.90;51.80;;;;;;5062789;28;20384;-80
2024/03/16 10:35:20;;;;;;;0.75;0.50;;;24.90;47.80;;;;;;5070931;28;20411;-80
2024/03/16 10:37:46;;;;;;;0.80;0.60;;;25.50;46.30;;;;;;5059591;28;20060;-78
2024/03/16 10:40:17;;;;;;;3.50;0.40;;;25.70;43.90;;;;;;5074167;28;20053;-78
2024/03/16 10:42:50;;;;;;;3.03;0.57;;;25.60;44.00;;;;;;5054906;28;20052;-80
2024/03/16 10:45:17;;;;;;;1.52;0.80;;;25.40;42.70;;;;;;5042168;28;20514;-80
2024/03/16 10:47:56;;;;;;;1.65;0.40;;;25.80;42.60;;;;;;5054182;28;20411;-80
2024/03/16 10:50:25;;;;;;;1.27;0.52;;;26.30;41.00;;;;;;5055966;28;20060;-80
2024/03/16 10:52:53;;;;;;;0.90;0.60;;;26.90;39.30;;;;;;5069544;28;20146;-77
2024/03/16 10:55:27;;;;;;;1.63;0.60;;;27.50;39.10;;;;;;5069722;28;20052;-80
2024/03/16 10:57:54;;;;;;;0.65;0.32;;;28.30;38.30;;;;;;5062927;28;20057;-77
2024/03/16 11:00:23;;;;;;;1.42;0.57;;;28.50;37.70;;;;;;5064619;28;20056;-78
2024/03/16 11:03:12;;;;;;;2.10;0.60;;;27.90;37.60;;;;;;5065782;28;20110;-78
2024/03/16 11:05:48;;;;;;;2.70;0.60;;;26.90;39.50;;;;;;5062407;28;20057;-78
2024/03/16 11:08:14;;;;;;;1.45;0.50;;;27.30;39.40;;;;;;5052182;28;20052;-78
2024/03/16 11:10:54;;;;;;;1.38;0.50;;;27.30;37.30;;;;;;5062361;28;20048;-78
2024/03/16 11:13:22;;;;;;;1.27;0.57;;;26.70;37.90;;;;;;5059870;28;20051;-78
2024/03/16 11:15:48;;;;;;;2.83;0.52;;;25.50;38.90;;;;;;5055037;28;20139;-78
2024/03/16 11:18:18;;;;;;;1.17;0.55;;;25.70;40.50;;;;;;5071761;28;20048;-78
2024/03/16 11:20:55;;;;;;;1.65;0.63;;;25.70;41.00;;;;;;5059205;28;20059;-78
2024/03/16 11:23:30;;;;;;;2.22;1.00;;;26.30;40.30;;;;;;5073598;28;20430;-78
2024/03/16 11:25:58;;;;;;;2.03;0.50;;;27.10;40.40;;;;;;5069928;28;20402;-78
2024/03/16 11:28:43;;;;;;;1.55;0.73;;;27.60;39.40;;;;;;5051546;28;20045;-78
2024/03/16 11:31:28;;;;;;;1.73;0.50;;;28.50;36.30;;;;;;5070569;28;20056;-78
2024/03/16 11:33:55;;;;;;;1.85;0.50;;;29.30;36.50;;;;;;5068415;28;20064;-78
2024/03/16 11:36:23;;;;;;;1.13;0.52;;;29.70;34.10;;;;;;5067005;28;20072;-78
2024/03/16 11:38:53;;;;;;;1.02;0.57;;;29.60;34.00;;;;;;5068058;28;20063;-78
2024/03/16 11:41:19;;;;;;;1.35;0.52;;;28.70;35.10;;;;;;5066173;28;20544;-77
2024/03/16 11:43:51;;;;;;;2.75;0.70;;;27.60;37.00;;;;;;5051918;28;20057;-78
2024/03/16 11:46:19;;;;;;;3.70;0.47;;;26.20;41.20;;;;;;5069785;28;20431;-78
2024/03/16 11:48:45;;;;;;;3.53;0.70;;;24.60;45.00;;;;;;5070558;28;20052;-73
2024/03/16 11:51:13;;;;;;;1.15;0.47;;;23.10;48.20;;;;;;5069431;28;20053;-73
2024/03/16 11:53:42;;;;;;;3.28;0.70;;;22.00;52.00;;;;;;5045978;28;20053;-74
2024/03/16 11:56:11;;;;;;;1.65;0.52;;;21.20;54.20;;;;;;5058242;28;20048;-74
2024/03/16 11:58:39;;;;;;;1.73;0.60;;;20.30;54.30;;;;;;5078210;28;20053;-73
2024/03/16 12:01:15;;;;;;;1.92;0.63;;;19.70;56.90;;;;;;5067211;28;20053;-73
2024/03/16 12:03:44;;;;;;;2.40;0.70;;;19.40;57.10;;;;;;5051144;28;20182;-74
2024/03/16 12:06:14;;;;;;;4.57;0.70;;;19.80;59.40;;;;;;5070232;28;20052;-74
2024/03/16 12:08:41;;;;;;;3.30;0.90;;;21.50;58.60;;;;;;5067934;28;20045;-74
2024/03/16 12:11:11;;;;;;;4.07;0.80;;;23.70;51.90;;;;;;5066537;28;20056;-74
2024/03/16 12:13:37;;;;;;;3.78;0.63;;;25.30;47.50;;;;;;5057385;28;20053;-74
2024/03/16 12:16:04;;;;;;;2.45;0.77;;;26.10;47.80;;;;;;5054830;28;20059;-74
2024/03/16 12:18:33;;;;;;;1.05;0.50;;;27.70;44.10;;;;;;5067229;28;20049;-73
2024/03/16 12:21:02;;;;;;;2.65;0.40;;;28.70;41.40;;;;;;5051280;28;20057;-74
2024/03/16 12:23:32;;;;;;;3.45;0.40;;;28.70;40.10;;;;;;5076024;28;20064;-74
2024/03/16 12:25:58;;;;;;;1.23;0.40;;;27.70;41.00;;;;;;5060968;28;20687;-74
2024/03/16 12:28:25;;;;;;;1.40;0.52;;;26.10;42.90;;;;;;5061706;28;20048;-73
2024/03/16 12:30:52;;;;;;;2.05;0.70;;;24.90;45.30;;;;;;5062527;28;20051;-74
2024/03/16 12:33:19;;;;;;;1.45;0.70;;;23.60;47.30;;;;;;5067379;28;20045;-73
2024/03/16 12:35:44;;;;;;;2.30;0.80;;;22.70;50.30;;;;;;5067290;28;20388;-73
2024/03/16 12:38:10;;;;;;;2.05;0.80;;;21.80;52.40;;;;;;5071409;28;20082;-73
2024/03/16 12:40:37;;;;;;;5.28;1.08;;;21.10;53.60;;;;;;5057261;28;20064;-74
2024/03/16 12:43:04;;;;;;;2.78;0.90;;;20.60;55.50;;;;;;5063812;28;20052;-74
2024/03/16 12:45:31;;;;;;;5.40;1.08;;;20.10;56.90;;;;;;5067892;28;20041;-74
2024/03/16 12:47:57;;;;;;;2.90;0.80;;;19.60;58.00;;;;;;5069484;28;20052;-73
2024/03/16 12:50:23;;;;;;;3.80;1.00;;;19.30;58.90;;;;;;5048605;28;20250;-73
2024/03/16 12:52:52;;;;;;;2.95;0.90;;;18.90;59.60;;;;;;5069056;28;20495;-73
2024/03/16 12:55:18;;;;;;;2.15;1.10;;;18.60;60.70;;;;;;5052954;28;20059;-73